createdAt,value
2024-01-16T00:00:56.824Z,94.47
2024-01-16T00:01:59.786Z,93.77
2024-01-16T00:03:05.896Z,93.81
2024-01-16T00:04:09.508Z,93.79
2024-01-16T00:05:14.396Z,93.39
2024-01-16T00:06:16.223Z,93.69
2024-01-16T00:07:20.439Z,93.68
2024-01-16T00:08:22.164Z,93.59
2024-01-16T00:09:27.932Z,93.89
2024-01-16T00:10:31.458Z,94.47
2024-01-16T00:11:34.759Z,94.04
2024-01-16T00:12:36.456Z,94.44
2024-01-16T00:13:39.797Z,94.63
2024-01-16T00:14:44.717Z,94.56
2024-01-16T00:15:46.523Z,94.44
2024-01-16T00:16:51.309Z,94.05
2024-01-16T00:17:54.744Z,94.78
2024-01-16T00:19:04.318Z,94.13
2024-01-16T00:20:07.342Z,94.06
2024-01-16T00:21:09.931Z,94.17
2024-01-16T00:22:15.166Z,94.54
2024-01-16T00:23:21.034Z,94.20
2024-01-16T00:24:26.880Z,94.29
2024-01-16T00:25:36.596Z,94.29
2024-01-16T00:26:55.589Z,94.28
2024-01-16T00:28:05.461Z,94.47
2024-01-16T00:29:07.189Z,94.44
2024-01-16T00:30:12.673Z,94.49
2024-01-16T00:31:15.839Z,94.74
2024-01-16T00:32:17.671Z,94.81
2024-01-16T00:33:30.253Z,94.89
2024-01-16T00:34:36.656Z,95.14
2024-01-16T00:35:41.157Z,94.97
2024-01-16T00:36:42.822Z,95.54
2024-01-16T00:37:51.754Z,95.41
2024-01-16T00:38:54.691Z,95.59
2024-01-16T00:39:56.351Z,95.78
2024-01-16T00:40:59.496Z,96.02
2024-01-16T00:42:02.960Z,96.05
2024-01-16T00:43:11.131Z,96.58
2024-01-16T00:44:12.837Z,96.62
2024-01-16T00:45:24.606Z,96.48
2024-01-16T00:46:26.693Z,96.86
2024-01-16T00:47:29.458Z,96.98
2024-01-16T00:48:31.699Z,97.03
2024-01-16T00:49:35.599Z,96.93
2024-01-16T00:50:37.295Z,97.36
2024-01-16T00:51:41.482Z,97.46
2024-01-16T00:52:43.400Z,97.18
2024-01-16T00:53:46.555Z,97.44
2024-01-16T00:54:49.964Z,97.94
2024-01-16T00:55:58.485Z,97.59
2024-01-16T00:57:01.361Z,97.74
2024-01-16T00:58:03.032Z,98.07
2024-01-16T00:59:11.395Z,98.23
2024-01-16T01:00:15.015Z,98.46
2024-01-16T01:01:16.744Z,98.52
2024-01-16T01:02:20.528Z,98.79
2024-01-16T01:03:26.465Z,98.67
2024-01-16T01:04:28.313Z,98.51
2024-01-16T01:05:31.538Z,98.58
2024-01-16T01:06:36.342Z,98.57
2024-01-16T01:07:38.044Z,98.74
2024-01-16T01:08:44.600Z,98.62
2024-01-16T01:09:46.351Z,98.55
2024-01-16T01:10:49.580Z,98.20
2024-01-16T01:11:54.537Z,98.35
2024-01-16T01:12:56.408Z,98.51
2024-01-16T01:14:04.754Z,98.46
2024-01-16T01:15:07.002Z,98.52
2024-01-16T01:16:11.733Z,98.54
2024-01-16T01:17:15.828Z,98.27
2024-01-16T01:18:17.751Z,98.30
2024-01-16T01:19:22.361Z,98.16
2024-01-16T01:20:25.554Z,98.10
2024-01-16T01:21:28.058Z,98.01
2024-01-16T01:22:37.268Z,98.09
2024-01-16T01:23:41.436Z,98.17
2024-01-16T01:24:45.967Z,98.04
2024-01-16T01:25:47.633Z,97.98
2024-01-16T01:26:51.023Z,98.22
2024-01-16T01:27:56.083Z,98.37
2024-01-16T01:29:01.166Z,98.01
2024-01-16T01:30:06.093Z,98.03
2024-01-16T01:31:11.637Z,98.11
2024-01-16T01:32:14.679Z,97.71
2024-01-16T01:33:16.952Z,98.08
2024-01-16T01:34:24.861Z,98.17
2024-01-16T01:35:27.884Z,97.89
2024-01-16T01:36:34.847Z,98.06
2024-01-16T01:37:36.518Z,97.89
2024-01-16T01:38:39.527Z,98.06
2024-01-16T01:39:41.805Z,97.71
2024-01-16T01:40:46.089Z,97.84
2024-01-16T01:41:47.796Z,97.87
2024-01-16T01:42:51.114Z,97.81
2024-01-16T01:43:52.747Z,97.91
2024-01-16T01:44:55.852Z,97.93
2024-01-16T01:46:15.825Z,97.98
2024-01-16T01:47:17.608Z,97.88
2024-01-16T01:48:26.444Z,98.13
2024-01-16T01:49:29.715Z,98.16
2024-01-16T01:50:35.570Z,98.14
2024-01-16T01:51:37.228Z,98.21
2024-01-16T01:52:42.086Z,97.88
2024-01-16T01:53:50.282Z,98.01
2024-01-16T01:54:57.873Z,98.15
2024-01-16T01:56:06.991Z,97.98
2024-01-16T01:57:11.279Z,97.85
2024-01-16T01:58:12.953Z,97.73
2024-01-16T01:59:20.910Z,97.77
2024-01-16T02:00:22.892Z,97.70
2024-01-16T02:01:26.932Z,97.70
2024-01-16T02:02:29.595Z,97.33
2024-01-16T02:03:51.234Z,97.72
2024-01-16T02:04:55.611Z,97.02
2024-01-16T02:05:57.632Z,97.24
2024-01-16T02:07:01.485Z,97.15
2024-01-16T02:08:04.887Z,96.92
2024-01-16T02:09:10.015Z,97.14
2024-01-16T02:10:11.778Z,97.20
2024-01-16T02:11:16.210Z,97.28
2024-01-16T02:12:21.839Z,97.33
2024-01-16T02:13:29.435Z,97.06
2024-01-16T02:14:34.487Z,97.70
2024-01-16T02:15:37.410Z,97.51
2024-01-16T02:16:45.155Z,97.61
2024-01-16T02:17:50.011Z,97.43
2024-01-16T02:18:55.122Z,97.51
2024-01-16T02:19:56.916Z,97.61
2024-01-16T02:21:05.743Z,97.62
2024-01-16T02:22:12.033Z,97.59
2024-01-16T02:23:17.112Z,97.65
2024-01-16T02:24:27.208Z,97.28
2024-01-16T02:25:30.800Z,97.38
2024-01-16T02:26:34.936Z,96.91
2024-01-16T02:27:36.685Z,96.99
2024-01-16T02:28:40.145Z,96.62
2024-01-16T02:29:47.723Z,96.55
2024-01-16T02:30:54.717Z,96.04
2024-01-16T02:31:57.093Z,96.19
2024-01-16T02:33:01.227Z,95.78
2024-01-16T02:34:06.580Z,95.71
2024-01-16T02:35:09.806Z,95.65
2024-01-16T02:36:11.510Z,95.50
2024-01-16T02:37:14.633Z,95.46
2024-01-16T02:41:02.648Z,95.10
2024-01-16T02:42:05.639Z,94.80
2024-01-16T02:43:07.570Z,94.79
2024-01-16T02:44:10.675Z,94.75
2024-01-16T02:45:15.941Z,94.86
2024-01-16T02:46:22.312Z,94.45
2024-01-16T02:47:30.634Z,94.40
2024-01-16T02:48:37.135Z,94.80
2024-01-16T02:49:41.269Z,94.78
2024-01-16T02:50:43.416Z,94.74
2024-01-16T02:51:46.338Z,94.99
2024-01-16T02:52:48.022Z,94.63
2024-01-16T02:53:51.666Z,94.75
2024-01-16T02:54:54.438Z,94.90
2024-01-16T02:56:04.384Z,94.67
2024-01-16T02:57:09.195Z,94.63
2024-01-16T02:58:11.237Z,95.03
2024-01-16T02:59:13.126Z,94.70
2024-01-16T03:00:16.062Z,94.46
2024-01-16T03:01:20.945Z,95.07
2024-01-16T03:02:25.565Z,94.80
2024-01-16T03:03:36.380Z,94.68
2024-01-16T03:04:42.272Z,94.36
2024-01-16T03:05:44.922Z,94.90
2024-01-16T03:06:46.712Z,94.64
2024-01-16T03:07:49.575Z,94.39
2024-01-16T03:08:52.371Z,93.80
2024-01-16T03:09:56.326Z,93.46
2024-01-16T03:11:01.212Z,93.79
2024-01-16T03:12:03.939Z,94.10
2024-01-16T03:13:06.266Z,93.95
2024-01-16T03:14:07.950Z,94.46
2024-01-16T03:15:15.922Z,94.33
2024-01-16T03:16:22.792Z,94.53
2024-01-16T03:17:26.005Z,94.51
2024-01-16T03:18:27.952Z,94.69
2024-01-16T03:19:31.961Z,94.55
2024-01-16T03:20:35.880Z,94.43
2024-01-16T03:21:37.750Z,94.38
2024-01-16T03:22:46.620Z,94.77
2024-01-16T03:24:17.487Z,94.82
2024-01-16T03:25:27.435Z,94.76
2024-01-16T03:26:31.658Z,95.18
2024-01-16T03:27:35.763Z,95.39
2024-01-16T03:28:39.401Z,95.50
2024-01-16T03:29:41.234Z,95.86
2024-01-16T03:30:43.534Z,96.09
2024-01-16T03:31:45.955Z,95.98
2024-01-16T03:32:49.262Z,96.36
2024-01-16T03:33:51.718Z,96.36
2024-01-16T03:34:54.653Z,96.06
2024-01-16T03:35:56.395Z,96.39
2024-01-16T03:37:01.172Z,96.37
2024-01-16T03:38:02.833Z,96.58
2024-01-16T03:39:06.808Z,96.19
2024-01-16T03:40:14.474Z,96.96
2024-01-16T03:41:16.451Z,96.56
2024-01-16T03:42:19.832Z,96.96
2024-01-16T03:43:21.565Z,96.58
2024-01-16T03:44:24.599Z,96.94
2024-01-16T03:45:29.451Z,97.09
2024-01-16T03:46:35.963Z,96.58
2024-01-16T03:47:38.445Z,96.78
2024-01-16T03:48:43.038Z,96.72
2024-01-16T03:49:47.618Z,96.95
2024-01-16T03:50:52.834Z,96.77
2024-01-16T03:51:55.936Z,96.59
2024-01-16T03:53:00.234Z,97.08
2024-01-16T03:54:05.846Z,96.79
2024-01-16T03:55:10.742Z,96.91
2024-01-16T03:56:15.651Z,96.69
2024-01-16T03:57:17.986Z,96.42
2024-01-16T03:58:21.375Z,96.41
2024-01-16T03:59:27.034Z,96.76
2024-01-16T04:00:29.803Z,96.72
2024-01-16T04:01:34.101Z,97.03
2024-01-16T04:02:39.639Z,96.50
2024-01-16T04:03:42.365Z,96.56
2024-01-16T04:04:47.569Z,96.82
2024-01-16T04:05:51.718Z,96.61
2024-01-16T04:06:54.747Z,96.58
2024-01-16T04:07:58.362Z,96.51
2024-01-16T04:09:02.010Z,96.56
2024-01-16T04:10:06.298Z,96.51
2024-01-16T04:11:14.959Z,96.88
2024-01-16T04:12:16.661Z,97.06
2024-01-16T04:13:21.933Z,96.79
2024-01-16T04:14:26.115Z,97.17
2024-01-16T04:15:27.796Z,97.03
2024-01-16T04:16:31.536Z,97.42
2024-01-16T04:17:34.604Z,97.63
2024-01-16T04:18:45.544Z,97.78
2024-01-16T04:19:47.336Z,98.34
2024-01-16T04:20:52.365Z,98.33
2024-01-16T04:21:54.780Z,98.90
2024-01-16T04:22:57.608Z,98.88
2024-01-16T04:24:05.485Z,99.44
2024-01-16T04:25:10.939Z,99.50
2024-01-16T04:26:12.554Z,99.97
2024-01-16T04:27:19.724Z,99.93
2024-01-16T04:28:24.668Z,99.99
2024-01-16T04:29:26.390Z,99.64
2024-01-16T04:30:37.030Z,99.68
2024-01-16T04:31:42.502Z,99.44
2024-01-16T04:32:46.110Z,99.17
2024-01-16T04:33:47.880Z,99.19
2024-01-16T04:34:59.855Z,99.38
2024-01-16T04:36:01.982Z,99.00
2024-01-16T04:37:05.732Z,98.84
2024-01-16T04:38:09.740Z,98.80
2024-01-16T04:39:11.593Z,99.07
2024-01-16T04:40:14.172Z,99.02
2024-01-16T04:41:23.430Z,98.86
2024-01-16T04:42:26.406Z,99.12
2024-01-16T04:43:28.042Z,98.86
2024-01-16T04:44:36.303Z,99.02
2024-01-16T04:45:40.188Z,98.67
2024-01-16T04:46:53.035Z,98.81
2024-01-16T04:47:56.194Z,98.82
2024-01-16T04:48:58.137Z,98.74
2024-01-16T04:50:01.562Z,98.73
2024-01-16T04:51:07.649Z,98.58
2024-01-16T04:52:13.188Z,98.81
2024-01-16T04:53:16.910Z,98.15
2024-01-16T04:54:21.526Z,98.63
2024-01-16T04:55:24.556Z,98.83
2024-01-16T04:56:26.286Z,98.58
2024-01-16T04:57:27.972Z,98.47
2024-01-16T04:58:31.073Z,98.53
2024-01-16T04:59:35.928Z,98.46
2024-01-16T05:00:37.737Z,98.54
2024-01-16T05:01:44.700Z,98.51
2024-01-16T05:02:46.313Z,98.38
2024-01-16T05:03:48.031Z,98.63
2024-01-16T05:04:57.251Z,98.59
2024-01-16T05:06:00.291Z,98.38
2024-01-16T05:07:02.200Z,98.28
2024-01-16T05:08:05.077Z,98.56
2024-01-16T05:09:10.749Z,98.59
2024-01-16T05:10:15.962Z,98.43
2024-01-16T05:11:22.831Z,98.23
2024-01-16T05:12:27.682Z,98.35
2024-01-16T05:13:31.129Z,98.45
2024-01-16T05:14:33.961Z,98.70
2024-01-16T05:16:54.851Z,98.51
2024-01-16T05:17:57.032Z,98.71
2024-01-16T05:19:02.205Z,98.68
2024-01-16T05:20:07.455Z,98.69
2024-01-16T05:21:10.214Z,98.48
2024-01-16T05:22:14.681Z,98.67
2024-01-16T05:23:21.269Z,98.50
2024-01-16T05:24:22.969Z,98.52
2024-01-16T05:25:26.690Z,98.65
2024-01-16T05:26:30.069Z,98.77
2024-01-16T05:27:31.711Z,98.73
2024-01-16T05:28:34.739Z,98.92
2024-01-16T05:29:44.308Z,98.61
2024-01-16T05:30:55.769Z,98.69
2024-01-16T05:32:00.806Z,98.46
2024-01-16T05:33:02.624Z,98.69
2024-01-16T05:34:11.062Z,98.66
2024-01-16T05:35:12.859Z,98.58
2024-01-16T05:36:20.040Z,98.48
2024-01-16T05:37:21.697Z,98.40
2024-01-16T05:38:24.610Z,98.37
2024-01-16T05:39:26.316Z,98.44
2024-01-16T05:40:31.092Z,98.45
2024-01-16T05:41:35.802Z,98.58
2024-01-16T05:42:41.205Z,98.64
2024-01-16T05:43:42.903Z,98.32
2024-01-16T05:44:49.911Z,98.29
2024-01-16T05:45:52.890Z,98.47
2024-01-16T05:46:56.004Z,98.34
2024-01-16T05:47:57.882Z,98.67
2024-01-16T05:49:02.909Z,98.35
2024-01-16T05:50:08.235Z,98.44
2024-01-16T05:51:11.369Z,98.24
2024-01-16T05:52:13.024Z,98.34
2024-01-16T05:53:16.637Z,98.43
2024-01-16T05:54:22.660Z,98.55
2024-01-16T05:55:25.718Z,99.03
2024-01-16T05:56:27.453Z,98.64
2024-01-16T05:57:35.671Z,98.78
2024-01-16T05:58:41.411Z,99.04
2024-01-16T05:59:43.077Z,98.79
2024-01-16T06:00:49.747Z,99.42
2024-01-16T06:01:54.516Z,99.34
2024-01-16T06:02:57.594Z,99.42
2024-01-16T06:04:02.050Z,99.65
2024-01-16T06:05:07.190Z,99.32
2024-01-16T06:06:10.027Z,99.52
2024-01-16T06:07:11.700Z,99.60
2024-01-16T06:08:14.661Z,99.67
2024-01-16T06:09:17.653Z,99.73
2024-01-16T06:10:21.857Z,99.81
2024-01-16T06:11:39.880Z,99.74
2024-01-16T06:12:41.912Z,99.72
2024-01-16T06:13:44.698Z,100.00
2024-01-16T06:14:46.389Z,99.88
2024-01-16T06:15:50.849Z,99.86
2024-01-16T06:17:02.733Z,99.85
2024-01-16T06:18:06.099Z,100.00
2024-01-16T06:19:09.981Z,100.00
2024-01-16T06:20:11.930Z,100.00
2024-01-16T06:21:14.516Z,100.00
2024-01-16T06:22:22.330Z,100.00
2024-01-16T06:23:24.866Z,100.00
2024-01-16T06:24:26.625Z,100.00
2024-01-16T06:25:29.796Z,100.00
2024-01-16T06:26:32.724Z,100.00
2024-01-16T06:27:35.838Z,100.00
2024-01-16T06:28:39.480Z,100.00
2024-01-16T06:29:41.710Z,100.00
2024-01-16T06:30:44.660Z,100.00
2024-01-16T06:31:50.662Z,100.00
2024-01-16T06:32:56.095Z,100.00
2024-01-16T06:34:00.816Z,100.00
2024-01-16T06:35:02.544Z,100.00
2024-01-16T06:36:05.936Z,100.00
2024-01-16T06:37:07.644Z,100.00
2024-01-16T06:38:17.111Z,100.00
2024-01-16T06:39:21.101Z,100.00
2024-01-16T06:40:22.856Z,100.00
2024-01-16T06:41:29.981Z,100.00
2024-01-16T06:42:33.354Z,100.00
2024-01-16T06:43:36.406Z,100.00
2024-01-16T06:44:39.465Z,100.00
2024-01-16T06:45:41.245Z,100.00
2024-01-16T06:46:42.933Z,100.00
2024-01-16T06:47:47.724Z,100.00
2024-01-16T06:48:52.188Z,100.00
2024-01-16T06:50:02.768Z,100.00
2024-01-16T06:51:06.288Z,100.00
2024-01-16T06:52:11.098Z,100.00
2024-01-16T06:53:17.356Z,100.00
2024-01-16T06:54:21.986Z,100.00
2024-01-16T06:55:25.873Z,100.00
2024-01-16T06:56:27.886Z,100.00
2024-01-16T06:57:31.734Z,100.00
2024-01-16T06:58:40.671Z,100.00
2024-01-16T06:59:42.633Z,100.00
2024-01-16T07:00:49.835Z,100.00
2024-01-16T07:01:52.535Z,100.00
2024-01-16T07:02:56.072Z,100.00
2024-01-16T07:03:58.071Z,100.00
2024-01-16T07:05:01.292Z,100.00
2024-01-16T07:06:04.512Z,100.00
2024-01-16T07:07:06.788Z,100.00
2024-01-16T07:08:09.649Z,100.00
2024-01-16T07:09:17.166Z,100.00
2024-01-16T07:10:23.997Z,100.00
2024-01-16T07:11:26.624Z,100.00
2024-01-16T07:12:34.328Z,100.00
2024-01-16T07:13:36.132Z,100.00
2024-01-16T07:14:41.964Z,100.00
2024-01-16T07:15:46.051Z,100.00
2024-01-16T07:16:49.621Z,100.00
2024-01-16T07:17:56.229Z,100.00
2024-01-16T07:19:00.632Z,100.00
2024-01-16T07:20:05.787Z,100.00
2024-01-16T07:21:22.103Z,100.00
2024-01-16T07:22:24.390Z,100.00
2024-01-16T07:23:26.561Z,100.00
2024-01-16T07:24:29.084Z,100.00
2024-01-16T07:25:35.363Z,100.00
2024-01-16T07:26:37.162Z,100.00
2024-01-16T07:27:40.441Z,100.00
2024-01-16T07:28:42.209Z,100.00
2024-01-16T07:29:44.435Z,100.00
2024-01-16T07:30:46.192Z,100.00
2024-01-16T07:31:52.223Z,100.00
2024-01-16T07:32:55.800Z,100.00
2024-01-16T07:33:57.574Z,100.00
2024-01-16T07:35:03.022Z,100.00
2024-01-16T07:36:10.983Z,100.00
2024-01-16T07:37:16.951Z,100.00
2024-01-16T07:38:19.454Z,100.00
2024-01-16T07:39:25.960Z,100.00
2024-01-16T07:40:30.900Z,100.00
2024-01-16T07:41:36.186Z,100.00
2024-01-16T07:42:41.202Z,100.00
2024-01-16T07:43:52.269Z,100.00
2024-01-16T07:44:54.441Z,100.00
2024-01-16T07:45:59.216Z,100.00
2024-01-16T07:47:01.121Z,100.00
2024-01-16T07:48:03.063Z,100.00
2024-01-16T07:49:06.941Z,100.00
2024-01-16T07:50:09.838Z,100.00
2024-01-16T07:51:16.917Z,100.00
2024-01-16T07:52:27.067Z,100.00
2024-01-16T07:53:29.571Z,100.00
2024-01-16T07:54:32.144Z,100.00
2024-01-16T07:55:36.957Z,100.00
2024-01-16T07:56:40.855Z,100.00
2024-01-16T07:57:45.484Z,100.00
2024-01-16T07:58:50.439Z,100.00
2024-01-16T07:59:52.264Z,100.00
2024-01-16T08:00:54.424Z,100.00
2024-01-16T08:01:56.176Z,100.00
2024-01-16T08:03:00.960Z,100.00
2024-01-16T08:04:06.352Z,100.00
2024-01-16T08:05:10.688Z,100.00
2024-01-16T08:06:12.492Z,100.00
2024-01-16T08:07:15.502Z,100.00
2024-01-16T08:08:19.240Z,100.00
2024-01-16T08:09:21.441Z,100.00
2024-01-16T08:10:24.609Z,100.00
2024-01-16T08:11:27.556Z,100.00
2024-01-16T08:12:30.258Z,100.00
2024-01-16T08:13:36.996Z,100.00
2024-01-16T08:14:43.606Z,100.00
2024-01-16T08:15:46.456Z,100.00
2024-01-16T08:16:49.148Z,100.00
2024-01-16T08:17:50.936Z,100.00
2024-01-16T08:18:53.087Z,100.00
2024-01-16T08:19:56.050Z,100.00
2024-01-16T08:20:58.030Z,100.00
2024-01-16T08:22:00.590Z,100.00
2024-01-16T08:23:02.377Z,100.00
2024-01-16T08:24:05.319Z,100.00
2024-01-16T08:25:07.505Z,100.00
2024-01-16T08:26:11.696Z,100.00
2024-01-16T08:27:17.482Z,100.00
2024-01-16T08:28:26.519Z,100.00
2024-01-16T08:29:42.332Z,100.00
2024-01-16T08:30:44.839Z,100.00
2024-01-16T08:31:51.640Z,100.00
2024-01-16T08:32:55.084Z,100.00
2024-01-16T08:33:59.789Z,100.00
2024-01-16T08:35:05.642Z,100.00
2024-01-16T08:36:07.609Z,100.00
2024-01-16T08:37:11.677Z,100.00
2024-01-16T08:38:14.211Z,100.00
2024-01-16T08:39:21.336Z,100.00
2024-01-16T08:40:23.101Z,100.00
2024-01-16T08:41:26.496Z,100.00
2024-01-16T08:42:28.386Z,100.00
2024-01-16T08:43:32.696Z,100.00
2024-01-16T08:44:36.898Z,100.00
2024-01-16T08:45:39.951Z,100.00
2024-01-16T08:46:41.564Z,100.00
2024-01-16T08:47:49.725Z,100.00
2024-01-16T08:48:51.670Z,100.00
2024-01-16T08:49:57.131Z,100.00
2024-01-16T08:51:05.457Z,100.00
2024-01-16T08:52:10.573Z,100.00
2024-01-16T08:53:15.987Z,100.00
2024-01-16T08:54:25.140Z,100.00
2024-01-16T08:55:30.487Z,99.83
2024-01-16T08:56:32.135Z,99.67
2024-01-16T08:57:34.651Z,99.51
2024-01-16T08:58:37.071Z,99.41
2024-01-16T08:59:39.521Z,99.46
2024-01-16T09:00:41.483Z,98.86
2024-01-16T09:01:43.401Z,98.76
2024-01-16T09:02:46.406Z,98.95
2024-01-16T09:03:49.482Z,98.59
2024-01-16T09:04:52.898Z,98.52
2024-01-16T09:06:05.299Z,98.03
2024-01-16T09:07:07.605Z,97.97
2024-01-16T09:08:13.992Z,97.92
2024-01-16T09:09:25.127Z,97.59
2024-01-16T09:10:26.841Z,96.92
2024-01-16T09:11:30.943Z,96.84
2024-01-16T09:12:35.653Z,96.99
2024-01-16T09:13:37.910Z,96.62
2024-01-16T09:14:42.950Z,96.23
2024-01-16T09:15:45.542Z,96.38
2024-01-16T09:16:47.217Z,96.30
2024-01-16T09:17:51.373Z,95.86
2024-01-16T09:18:56.717Z,95.99
2024-01-16T09:20:01.634Z,95.65
2024-01-16T09:21:05.621Z,95.66
2024-01-16T09:22:07.974Z,95.66
2024-01-16T09:23:16.136Z,95.71
2024-01-16T09:24:29.086Z,95.20
2024-01-16T09:25:36.533Z,95.12
2024-01-16T09:26:40.008Z,94.79
2024-01-16T09:27:42.743Z,95.09
2024-01-16T09:28:47.063Z,94.74
2024-01-16T09:29:50.882Z,94.81
2024-01-16T09:30:52.647Z,94.56
2024-01-16T09:31:56.534Z,94.46
2024-01-16T09:32:59.361Z,94.83
2024-01-16T09:34:01.274Z,94.33
2024-01-16T09:35:09.477Z,94.19
2024-01-16T09:36:11.190Z,93.11
2024-01-16T09:37:20.771Z,93.74
2024-01-16T09:38:23.642Z,93.65
2024-01-16T09:39:29.692Z,93.77
2024-01-16T09:40:36.542Z,93.99
2024-01-16T09:41:40.956Z,93.39
2024-01-16T09:42:42.729Z,93.72
2024-01-16T09:43:45.856Z,93.70
2024-01-16T09:44:50.913Z,93.46
2024-01-16T09:45:55.511Z,93.69
2024-01-16T09:46:59.454Z,93.48
2024-01-16T09:48:04.604Z,93.38
2024-01-16T09:49:06.776Z,93.73
2024-01-16T09:50:09.638Z,93.58
2024-01-16T09:51:18.328Z,93.54
2024-01-16T09:52:21.200Z,93.11
2024-01-16T09:53:23.002Z,93.26
2024-01-16T09:54:28.341Z,93.42
2024-01-16T09:55:31.274Z,93.08
2024-01-16T09:56:35.366Z,92.70
2024-01-16T09:57:44.086Z,92.51
2024-01-16T09:58:52.240Z,92.47
2024-01-16T09:59:54.633Z,92.60
2024-01-16T10:00:59.999Z,92.61
2024-01-16T10:02:06.394Z,92.32
2024-01-16T10:03:14.418Z,92.10
2024-01-16T10:04:17.546Z,92.23
2024-01-16T10:05:26.126Z,92.75
2024-01-16T10:06:32.233Z,92.42
2024-01-16T10:07:35.737Z,92.39
2024-01-16T10:08:40.562Z,92.50
2024-01-16T10:09:46.460Z,92.78
2024-01-16T10:10:51.852Z,92.90
2024-01-16T10:11:54.569Z,93.06
2024-01-16T10:12:59.769Z,92.76
2024-01-16T10:14:05.539Z,92.68
2024-01-16T10:15:09.522Z,92.84
2024-01-16T10:16:11.374Z,92.20
2024-01-16T10:17:17.464Z,92.51
2024-01-16T10:18:36.913Z,91.80
2024-01-16T10:19:52.202Z,91.41
2024-01-16T10:20:57.596Z,92.05
2024-01-16T10:22:06.266Z,91.13
2024-01-16T10:23:09.354Z,91.16
2024-01-16T10:24:17.025Z,91.19
2024-01-16T10:25:22.299Z,90.69
2024-01-16T10:26:24.608Z,90.62
2024-01-16T10:27:31.575Z,90.55
2024-01-16T10:28:35.458Z,90.99
2024-01-16T10:29:47.312Z,90.86
2024-01-16T10:31:04.534Z,90.78
2024-01-16T10:32:14.645Z,90.69
2024-01-16T10:33:17.672Z,90.97
2024-01-16T10:34:24.364Z,90.69
2024-01-16T10:35:26.354Z,90.72
2024-01-16T10:36:28.041Z,90.95
2024-01-16T10:37:42.275Z,91.25
2024-01-16T10:38:46.166Z,90.27
2024-01-16T10:39:51.812Z,90.63
2024-01-16T10:41:14.412Z,90.02
2024-01-16T10:42:21.170Z,90.22
2024-01-16T10:43:24.248Z,90.17
2024-01-16T10:44:26.077Z,89.83
2024-01-16T10:45:29.787Z,89.93
2024-01-16T10:46:31.633Z,89.58
2024-01-16T10:47:38.139Z,89.55
2024-01-16T10:48:46.069Z,89.11
2024-01-16T10:49:49.208Z,88.58
2024-01-16T10:50:54.534Z,88.44
2024-01-16T10:51:56.366Z,88.52
2024-01-16T10:53:01.356Z,87.94
2024-01-16T10:54:12.081Z,87.49
2024-01-16T10:55:24.282Z,87.83
2024-01-16T10:56:30.658Z,88.00
2024-01-16T10:57:41.530Z,88.07
2024-01-16T10:58:45.473Z,88.27
2024-01-16T10:59:59.608Z,88.47
2024-01-16T11:01:06.768Z,88.87
2024-01-16T11:02:14.462Z,89.00
2024-01-16T11:03:35.973Z,88.62
2024-01-16T11:04:39.412Z,88.93
2024-01-16T11:05:41.497Z,88.47
2024-01-16T11:06:46.883Z,88.93
2024-01-16T11:07:50.968Z,88.75
2024-01-16T11:08:54.610Z,88.28
2024-01-16T11:09:57.527Z,88.29
2024-01-16T11:11:09.400Z,88.05
2024-01-16T11:12:16.630Z,87.74
2024-01-16T11:13:20.990Z,87.44
2024-01-16T11:14:26.414Z,87.42
2024-01-16T11:15:34.791Z,87.32
2024-01-16T11:16:37.116Z,86.88
2024-01-16T11:17:41.114Z,86.87
2024-01-16T11:18:43.219Z,86.99
2024-01-16T11:20:06.972Z,87.28
2024-01-16T11:21:17.986Z,87.15
2024-01-16T11:22:24.175Z,87.15
2024-01-16T11:23:26.409Z,86.99
2024-01-16T11:24:29.264Z,87.06
2024-01-16T11:25:35.569Z,86.71
2024-01-16T11:26:41.313Z,86.73
2024-01-16T11:27:45.294Z,87.13
2024-01-16T11:28:47.155Z,86.61
2024-01-16T11:29:51.663Z,86.79
2024-01-16T11:30:54.303Z,86.93
2024-01-16T11:32:13.692Z,87.04
2024-01-16T11:33:53.835Z,86.91
2024-01-16T11:34:59.538Z,86.68
2024-01-16T11:36:02.892Z,86.59
2024-01-16T11:37:10.379Z,86.73
2024-01-16T11:38:22.599Z,86.42
2024-01-16T11:39:26.562Z,86.48
2024-01-16T11:40:34.634Z,86.67
2024-01-16T11:41:57.103Z,86.63
2024-01-16T11:42:59.814Z,86.55
2024-01-16T11:44:01.845Z,86.97
2024-01-16T11:45:09.156Z,86.88
2024-01-16T11:46:10.847Z,87.02
2024-01-16T11:47:24.755Z,87.19
2024-01-16T11:48:29.479Z,87.11
2024-01-16T11:49:36.965Z,86.92
2024-01-16T11:50:41.438Z,86.91
2024-01-16T11:51:45.271Z,86.42
2024-01-16T11:52:47.222Z,86.50
2024-01-16T11:53:50.618Z,86.34
2024-01-16T11:54:52.612Z,86.24
2024-01-16T11:56:34.306Z,86.06
2024-01-16T11:58:11.252Z,85.55
2024-01-16T11:59:29.375Z,86.09
2024-01-16T12:00:35.734Z,86.29
2024-01-16T12:01:47.046Z,86.47
2024-01-16T12:03:00.006Z,86.65
2024-01-16T12:04:09.204Z,86.89
2024-01-16T12:05:14.678Z,86.71
2024-01-16T12:06:18.124Z,86.73
2024-01-16T12:07:25.382Z,86.40
2024-01-16T12:08:27.889Z,86.51
2024-01-16T12:09:33.816Z,86.32
2024-01-16T12:10:48.013Z,86.42
2024-01-16T12:12:02.624Z,86.28
2024-01-16T12:13:05.915Z,85.29
2024-01-16T12:14:10.313Z,85.54
2024-01-16T12:15:23.307Z,85.48
2024-01-16T12:16:26.053Z,85.29
2024-01-16T12:17:30.367Z,85.80
2024-01-16T12:18:40.479Z,85.80
2024-01-16T12:19:48.060Z,85.83
2024-01-16T12:20:51.955Z,84.76
2024-01-16T12:21:59.421Z,84.84
2024-01-16T12:23:13.038Z,84.92
2024-01-16T12:24:18.806Z,84.59
2024-01-16T12:25:25.235Z,85.04
2024-01-16T12:26:49.019Z,84.24
2024-01-16T12:28:05.083Z,84.65
2024-01-16T12:29:07.203Z,84.66
2024-01-16T12:30:10.679Z,84.71
2024-01-16T12:31:21.740Z,84.62
2024-01-16T12:32:24.168Z,84.65
2024-01-16T12:33:26.029Z,84.12
2024-01-16T12:34:29.663Z,83.90
2024-01-16T12:35:32.142Z,84.63
2024-01-16T12:36:35.499Z,84.51
2024-01-16T12:37:37.222Z,84.55
2024-01-16T12:38:41.298Z,84.67
2024-01-16T12:39:45.904Z,84.24
2024-01-16T12:40:52.539Z,83.54
2024-01-16T12:41:55.398Z,84.07
2024-01-16T12:42:57.134Z,84.18
2024-01-16T12:44:04.965Z,84.25
2024-01-16T12:45:14.340Z,84.46
2024-01-16T12:46:16.046Z,83.77
2024-01-16T12:47:20.534Z,83.80
2024-01-16T12:48:29.711Z,84.03
2024-01-16T12:49:31.745Z,84.17
2024-01-16T12:50:37.095Z,84.19
2024-01-16T12:51:40.556Z,83.64
2024-01-16T12:52:44.671Z,84.33
2024-01-16T12:53:48.080Z,84.49
2024-01-16T12:55:02.339Z,84.85
2024-01-16T12:56:05.601Z,84.66
2024-01-16T12:57:07.437Z,84.85
2024-01-16T12:58:16.694Z,84.65
2024-01-16T12:59:19.811Z,85.13
2024-01-16T13:00:24.456Z,85.55
2024-01-16T13:01:38.743Z,85.51
2024-01-16T13:02:45.093Z,85.48
2024-01-16T13:03:51.790Z,85.53
2024-01-16T13:05:05.668Z,85.36
2024-01-16T13:06:07.604Z,85.22
2024-01-16T13:07:11.997Z,85.32
2024-01-16T13:08:21.827Z,85.30
2024-01-16T13:09:24.306Z,85.17
2024-01-16T13:10:26.386Z,84.54
2024-01-16T13:11:38.636Z,84.56
2024-01-16T13:12:49.583Z,84.17
2024-01-16T13:14:05.283Z,84.17
2024-01-16T13:15:10.282Z,84.16
2024-01-16T13:16:12.554Z,84.47
2024-01-16T13:17:16.019Z,84.72
2024-01-16T13:18:30.574Z,84.34
2024-01-16T13:19:35.975Z,84.17
2024-01-16T13:20:38.000Z,84.37
2024-01-16T13:21:40.896Z,84.45
2024-01-16T13:22:45.924Z,84.29
2024-01-16T13:23:50.925Z,84.93
2024-01-16T13:24:58.280Z,85.03
2024-01-16T13:26:11.308Z,84.80
2024-01-16T13:27:15.262Z,84.84
2024-01-16T13:28:23.987Z,85.11
2024-01-16T13:29:27.389Z,84.96
2024-01-16T13:30:40.373Z,85.17
2024-01-16T13:31:50.497Z,85.32
2024-01-16T13:32:52.564Z,85.69
2024-01-16T13:33:57.907Z,85.68
2024-01-16T13:35:01.662Z,86.15
2024-01-16T13:36:05.827Z,86.21
2024-01-16T13:37:16.098Z,86.06
2024-01-16T13:38:21.114Z,86.19
2024-01-16T13:39:22.779Z,85.85
2024-01-16T13:40:25.803Z,85.79
2024-01-16T13:41:30.605Z,86.13
2024-01-16T13:42:33.367Z,85.81
2024-01-16T13:43:36.056Z,86.28
2024-01-16T13:44:37.733Z,85.90
2024-01-16T13:45:42.510Z,86.12
2024-01-16T13:46:57.814Z,86.07
2024-01-16T13:48:09.722Z,86.15
2024-01-16T13:49:11.719Z,86.26
2024-01-16T13:50:14.468Z,86.31
2024-01-16T13:51:16.991Z,86.10
2024-01-16T13:52:21.293Z,86.40
2024-01-16T13:53:26.011Z,86.39
2024-01-16T13:54:30.310Z,86.49
2024-01-16T13:55:37.017Z,86.27
2024-01-16T13:56:57.268Z,86.15
2024-01-16T13:58:05.415Z,86.49